Hit Tracker is now ESPN Home Run Tracker! Hit Tracker founder Greg Rybarczyk is now collaborating with the ESPN Stats & Information Group to continue tracking all MLB home runs, and helping baseball fans know "How Far It Really Went!™" Please credit any information on this site to ESPN Stats & Information Group. For more information and analysis on home runs, please contact founder Greg Rybarczyk. E-Mail ESPN Home Run Tracker
Main Page | Ballparks | Park Overlays | Glossary | Highlight Homers | Feedback | Bio | 3 Types of HR's | AAA Home Run Derby Last Updated: September 20, 2017, 11:02 pm PST
If you want to know "How Far It Really Went!", then you've come to the right place! Welcome to the ESPN Home Run Tracker, where you can find accurate, transparently verifiable distances for every home run hit in MLB games. Please also check out the ESPN MLB Scoreboard throughout the 2017 season! Contact us at grybar@hittrackeronline.com.
Season:
Ballpark detail for Guaranteed Rate Field
Ballpark # of Home Runs HR per game Avg.
True
Distance
Avg.
Speed
Off
Bat
Avg.
Std.
Dist.
Guaranteed Rate Field 212 2.86 400.1 103.8 397.7

Scatter Plot of Home Runs Guaranteed Rate Field
 Overlay Ballpark:
Without range rings   With range rings

2017 Season Home Runs for Guaranteed Rate Field
Click headers to sort
Date ^ Video Path Hitter Hitter
Team
Pitcher Pitcher
Team
INN Ballpark Type/
Luck
True
Dist.
Speed
Off
Bat
Elev.
Angle
Horiz.
Angle
Apex Impact Due To: Std.
Dist.
#
Parks
Wind Temp. Alt.
09/10/17 Video View Parker, Jarrett SF Fulmer, Carson CHW 2 Guaranteed R... JE 409 102.8 24.3 93.9 81 -1 0 1 409 15
09/10/17 Video View Abreu, Jose CHW Bumgarner, Madison SF 2 Guaranteed R... JE/L 414 107.5 19.7 91.2 62 3 0 0 412 3
09/10/17 Video View Abreu, Jose CHW Suarez, Albert SF 7 Guaranteed R... ND 405 105.9 31.4 113.8 110 -4 0 2 407 30
09/09/17 Video View Abreu, Jose CHW Samardzija, Jeff SF 1 Guaranteed R... JE/L 376 97.3 28.5 75.1 81 2 0 1 373 11
09/09/17 Video View Anderson, Tim CHW Samardzija, Jeff SF 2 Guaranteed R... PL 413 102.2 27.9 95.4 100 -1 0 1 414 25
09/09/17 Video View Sanchez, Yolmer CHW Samardzija, Jeff SF 4 Guaranteed R... ND 395 108.8 24.9 60.5 68 -1 -1 1 396 30
09/09/17 Video View Garcia, Avisail CHW Samardzija, Jeff SF 5 Guaranteed R... PL 397 103.0 24.8 78.3 76 -1 0 1 398 27
09/09/17 Video View Hundley, Nick SF Shields, James CHW 7 Guaranteed R... ND 397 106.1 26.2 114.7 75 1 0 1 397 30
09/09/17 Video View Moncada, Yoan CHW Osich, Josh SF 7 Guaranteed R... PL 382 102.2 35.1 104.1 137 -10 -2 3 390 30
09/09/17 Video View Delmonico, Nicky CHW Osich, Josh SF 7 Guaranteed R... ND 405 107.8 26.2 64.8 78 -1 -1 1 405 30
09/08/17 Video View Sandoval, Pablo SF Giolito, Lucas CHW 4 Guaranteed R... ND 418 106.4 26.3 76.7 90 -3 -1 1 421 30
09/08/17 Video View Garcia, Avisail CHW Moore, Matt SF 4 Guaranteed R... PL 367 97.8 34.1 67.5 107 1 -2 2 365 26
09/08/17 Video View Span, Denard SF Minaya, Juan CHW 9 Guaranteed R... JE 371 107.6 21.1 68.4 51 0 0 0 371 12
09/07/17 Video View Encarnacion, Edwin CLE Pelfrey, Mike CHW 1 Guaranteed R... JE 369 104.6 23.4 115.7 57 0 0 1 368 17
09/07/17 Video View Sanchez, Yolmer CHW Kluber, Corey CLE 1 Guaranteed R... ND 406 105.0 29.2 64.6 88 6 0 1 399 30
09/07/17 Video View Abreu, Jose CHW Kluber, Corey CLE 1 Guaranteed R... PL 428 106.9 24.3 81.8 78 2 0 1 426 29
09/07/17 Video View Lindor, Francisco CLE Pelfrey, Mike CHW 2 Guaranteed R... ND 421 108.2 25.0 74.1 79 1 -1 1 420 30
09/07/17 Video View Gonzalez, Erik CLE Pelfrey, Mike CHW 3 Guaranteed R... JE 373 105.0 22.4 109.8 55 0 0 1 373 11
09/07/17 Video View Gonzalez, Erik CLE Brantly, Rob CHW 9 Guaranteed R... PL 415 103.1 25.6 84.8 84 1 0 1 414 22
09/07/17 Video View Allen, Greg CLE Fry, Jace CHW 7 Guaranteed R... PL 395 103.6 25.6 107.0 74 1 0 1 394 30
09/06/17 Video View Santana, Carlos CLE Farquhar, Danny CHW 8 Guaranteed R... ND 421 104.7 30.8 75.8 111 6 -2 2 415 30
09/06/17 Video View Engel, Adam CHW Carrasco, Carlos CLE 9 Guaranteed R... PL 409 106.8 22.5 80.1 67 0 0 0 409 27
09/05/17 Video View Ramirez, Jose CLE Holmberg, David CHW 1 Guaranteed R... PL/L 386 96.9 34.3 102.8 109 14 -2 2 372 5
09/05/17 Video View Jackson, Austin CLE Holmberg, David CHW 1 Guaranteed R... JE 417 104.3 23.6 91.4 73 0 0 1 417 20
09/05/17 Video View Davidson, Matt CHW Salazar, Danny CLE 1 Guaranteed R... JE 412 100.6 28.5 89.2 96 3 -1 1 408 13
09/05/17 Video View Ramirez, Jose CLE Holmberg, David CHW 2 Guaranteed R... PL 414 104.0 26.3 103.3 78 7 -1 1 407 30
09/05/17 Video View Gomes, Yan CLE Beck, Chris CHW 9 Guaranteed R... PL 361 97.2 32.6 113.6 99 -2 -2 1 364 21
09/04/17 Video View Santana, Carlos CLE Shields, James CHW 2 Guaranteed R... JE 393 97.9 31.7 77.8 101 7 2 2 383 6
09/04/17 Video View Liriano, Rymer CHW Bauer, Trevor CLE 5 Guaranteed R... JE 395 103.4 23.4 100.0 63 0 0 0 396 11
09/04/17 Video View Ramirez, Jose CLE Beck, Chris CHW 8 Guaranteed R... PL 390 103.0 27.3 66.3 76 3 0 1 386 30
09/03/17 Video View Abreu, Jose CHW Andriese, Matt TB 3 Guaranteed R... PL 368 100.9 38.5 113.2 138 4 5 3 356 14
09/03/17 Video View Duda, Lucas TB Giolito, Lucas CHW 4 Guaranteed R... PL 399 103.0 37.2 77.0 146 11 5 4 381 18
09/03/17 Video View Anderson, Tim CHW Andriese, Matt TB 5 Guaranteed R... JE/L 404 100.6 25.8 86.4 79 1 1 1 401 9
09/02/17 Video View Hanson, Alen CHW Archer, Chris TB 1 Guaranteed R... JE 385 103.8 23.9 72.4 64 1 0 0 383 21
09/02/17 Video View Sanchez, Yolmer CHW Archer, Chris TB 1 Guaranteed R... PL 389 100.8 33.0 67.1 106 5 0 2 382 30
09/02/17 Video View Narvaez, Omar CHW Pruitt, Austin TB 4 Guaranteed R... PL 374 97.7 33.7 69.2 105 5 0 2 368 22
09/02/17 Video View Morrison, Logan TB Fulmer, Carson CHW 6 Guaranteed R... JE 412 101.7 28.6 88.2 104 -2 -1 1 414 23
09/02/17 Video View Garcia, Avisail CHW Stanek, Ryne TB 7 Guaranteed R... PL 402 103.6 27.9 72.0 88 0 -1 1 402 30
09/01/17 Video View Morrison, Logan TB Lopez, Reynaldo CHW 1 Guaranteed R... PL 413 103.7 28.1 80.5 101 -4 0 1 417 29
08/27/17 Video View Davidson, Matt CHW Boyd, Matt DET 3 Guaranteed R... PL 407 101.5 31.6 80.6 115 0 0 2 404 27
08/27/17 Video View Kinsler, Ian DET Petricka, Jake CHW 8 Guaranteed R... JE 356 104.8 22.2 118.5 50 0 0 0 355 3
08/26/17 Video View Sanchez, Yolmer CHW Farmer, Buck DET 2 Guaranteed R... PL 369 102.4 37.6 67.1 139 -3 1 3 367 29
08/26/17 Video View Upton, Justin DET Rodon, Carlos CHW 3 Guaranteed R... PL 400 101.4 28.6 79.7 99 -6 0 1 403 28
08/26/17 Video View Cabrera, Miguel DET Rodon, Carlos CHW 3 Guaranteed R... JE 370 95.1 33.6 70.7 98 11 0 2 358 1
08/25/17 Video View Abreu, Jose CHW Verlander, Justin DET 1 Guaranteed R... PL 385 100.9 33.8 108.5 118 -3 0 2 385 30
08/24/17 Video View Sanchez, Yolmer CHW Berrios, Jose MIN 2 Guaranteed R... JE 412 103.3 24.4 85.3 77 0 0 1 411 18
08/24/17 Video View Buxton, Byron MIN Holland, Derek CHW 6 Guaranteed R... ND 386 103.9 34.3 116.5 120 -4 -2 3 388 30
08/23/17 Video View Garcia, Leury CHW Santana, Ervin MIN 6 Guaranteed R... PL 389 104.0 34.6 73.2 137 -10 0 3 396 30
08/23/17 Video View Polanco, Jorge MIN Shields, James CHW 4 Guaranteed R... ND 424 111.9 24.9 67.7 79 -2 0 1 425 30
08/22/17 Video View Vargas, Kennys MIN Giolito, Lucas CHW 5 Guaranteed R... PL 420 103.7 31.8 83.0 123 0 1 2 417 29
08/22/17 Video View Polanco, Jorge MIN Giolito, Lucas CHW 4 Guaranteed R... PL 414 101.1 30.2 83.4 104 6 0 2 407 18
08/22/17 Video View Rosario, Eddie MIN Giolito, Lucas CHW 6 Guaranteed R... PL 416 103.1 25.8 95.7 82 2 0 1 414 23
08/21/17 Video View Sanchez, Yolmer CHW Melville, Tim MIN 4 Guaranteed R... PL 409 102.1 26.9 82.3 90 -2 2 1 408 27
08/21/17 Video View Abreu, Jose CHW Turley, Nik MIN 5 Guaranteed R... PL 418 106.9 22.0 95.2 66 -1 0 0 419 26
08/21/17 Video View Polanco, Jorge MIN Holland, Derek CHW 8 Guaranteed R... JE/L 388 96.2 33.7 100.2 106 13 2 2 372 1
08/21/17 Video View Polanco, Jorge MIN Fulmer, Carson CHW 2 Guaranteed R... PL 404 102.8 32.9 72.7 117 3 2 2 397 30
08/21/17 Video View Dozier, Brian MIN Fulmer, Carson CHW 2 Guaranteed R... PL 420 106.4 24.5 100.4 78 0 1 1 419 30
08/21/17 Video View Buxton, Byron MIN Covey, Dylan CHW 5 Guaranteed R... PL 377 102.0 37.5 116.7 130 7 2 3 365 30
08/21/17 Video View Delmonico, Nicky CHW Gee, Dillon MIN 5 Guaranteed R... PL 372 98.0 28.8 68.7 78 3 1 1 367 17
08/21/17 Video View Castro, Jason MIN Covey, Dylan CHW 6 Guaranteed R... PL 429 107.2 22.1 90.9 77 1 1 1 427 28
08/21/17 Video View Engel, Adam CHW Duffey, Tyler MIN 9 Guaranteed R... PL 400 103.3 27.0 107.7 80 1 1 1 397 30
08/13/17 Video View Bonifacio, Jorge KC Holland, Derek CHW 3 Guaranteed R... PL 360 95.6 34.0 111.6 102 -1 2 2 357 11
08/13/17 Video View Merrifield, Whit KC Pelfrey, Mike CHW 3 Guaranteed R... PL 403 100.3 29.9 98.8 101 0 2 2 400 21
08/13/17 Video View Anderson, Tim CHW Vargas, Jason KC 5 Guaranteed R... PL 424 104.1 26.6 95.8 92 -1 2 1 422 27
08/12/17 Video View Hosmer, Eric KC Shields, James CHW 1 Guaranteed R... PL 366 98.1 35.1 117.7 108 1 3 2 360 30
08/12/17 Video View Abreu, Jose CHW Kennedy, Ian KC 4 Guaranteed R... JE 362 96.5 36.2 107.5 120 0 3 3 357 5
08/12/17 Video View Abreu, Jose CHW Kennedy, Ian KC 6 Guaranteed R... PL 400 103.5 34.3 107.6 128 0 2 3 395 30
08/12/17 Video View Cabrera, Melky KC Bummer, Aaron CHW 8 Guaranteed R... PL 403 101.0 27.5 98.9 89 0 0 1 401 20
08/11/17 Video View Moustakas, Mike KC Lopez, Reynaldo CHW 4 Guaranteed R... PL 423 104.9 29.8 78.8 109 0 0 2 421 29
08/11/17 Video View Moustakas, Mike KC Lopez, Reynaldo CHW 6 Guaranteed R... PL 412 102.5 26.4 96.0 90 -1 0 1 412 22
08/11/17 Video View Anderson, Tim CHW Moylan, Peter KC 7 Guaranteed R... PL 415 104.3 27.5 103.0 94 1 0 1 413 30
08/10/17 Video View Marisnick, Jake HOU Rodon, Carlos CHW 3 Guaranteed R... ND 433 106.1 32.7 103.9 124 10 3 3 417 30
08/10/17 Video View Moncada, Yoan CHW Giles, Ken HOU 9 Guaranteed R... PL/L 381 96.5 31.0 102.2 94 4 0 1 375 10
08/09/17 Video View Anderson, Tim CHW McHugh, Collin HOU 5 Guaranteed R... PL 385 99.0 32.0 104.9 107 -2 0 2 384 26
08/09/17 Video View Fisher, Derek HOU Gonzalez, Miguel CHW 8 Guaranteed R... PL 381 102.0 29.4 59.3 81 2 0 1 377 29
08/08/17 Video View Smith, Kevan CHW Keuchel, Dallas HOU 4 Guaranteed R... ND 388 103.1 29.0 119.1 82 2 1 1 384 30
08/08/17 Video View Altuve, Jose HOU Petricka, Jake CHW 7 Guaranteed R... PL 400 106.7 22.4 102.7 63 0 1 1 400 27
08/08/17 N/A View Gurriel, Yulieski HOU Petricka, Jake CHW 7 Guaranteed R... PL 373 98.7 28.8 111.9 80 1 0 1 371 20
08/02/17 Video View Pearce, Steve TOR Holland, Derek CHW 6 Guaranteed R... PL 411 108.4 21.0 98.2 61 -1 0 0 412 24
08/02/17 Video View Donaldson, Josh TOR Beck, Chris CHW 9 Guaranteed R... ND 426 108.6 25.5 105.3 85 -2 2 1 426 30
08/01/17 Video View Donaldson, Josh TOR Pelfrey, Mike CHW 1 Guaranteed R... PL 442 113.8 18.8 93.1 64 3 0 0 439 28
08/01/17 Video View Smoak, Justin TOR Pelfrey, Mike CHW 5 Guaranteed R... JE/L 392 99.5 34.1 81.3 124 0 2 2 388 12
08/01/17 Video View Smith, Kevan CHW Stroman, Marcus TOR 6 Guaranteed R... PL 416 104.4 23.8 94.6 76 0 1 1 415 22
07/31/17 Video View Donaldson, Josh TOR Shields, James CHW 1 Guaranteed R... JE 393 98.6 31.3 80.8 105 0 2 2 390 16
07/31/17 Video View Martin, Russell TOR Shields, James CHW 4 Guaranteed R... JE 411 109.1 19.2 93.9 57 0 0 0 411 11
07/31/17 Video View Smoak, Justin TOR Shields, James CHW 4 Guaranteed R... ND 420 107.3 25.2 75.5 80 0 0 1 419 30
07/31/17 Video View Davidson, Matt CHW Biagini, Joe TOR 8 Guaranteed R... JE 358 99.7 26.4 61.8 65 0 0 1 357 14
07/31/17 Video View Sanchez, Yolmer CHW Tepera, Ryan TOR 8 Guaranteed R... PL 392 101.8 32.1 69.0 106 0 1 2 390 30
07/30/17 Video View Lindor, Francisco CLE Rodon, Carlos CHW 3 Guaranteed R... PL 388 100.9 26.7 106.0 79 1 1 1 386 21
07/30/17 Video View Garcia, Leury CHW Goody, Nick CLE 6 Guaranteed R... PL 396 99.7 29.6 77.1 93 2 2 1 391 27
07/30/17 Video View Davidson, Matt CHW Shaw, Bryan CLE 9 Guaranteed R... PL 424 108.6 21.2 95.6 66 1 0 0 422 23
07/29/17 Video View Abreu, Jose CHW Kluber, Corey CLE 3 Guaranteed R... PL 399 112.2 21.6 113.3 57 1 0 1 397 30
07/28/17 Video View Ramirez, Jose CLE Holland, Derek CHW 2 Guaranteed R... PL 391 101.3 34.6 105.3 126 0 1 3 387 30
07/28/17 Video View Santana, Carlos CLE Beck, Chris CHW 6 Guaranteed R... ND 407 107.5 24.6 70.5 70 1 0 1 405 30
07/28/17 Video View Davidson, Matt CHW Salazar, Danny CLE 7 Guaranteed R... ND 403 105.3 33.5 116.7 115 4 0 2 397 30
07/28/17 Video View Brantley, Michael CLE Minaya, Juan CHW 8 Guaranteed R... PL 430 104.2 27.3 92.8 96 3 0 1 427 27
07/27/17 Video View Garcia, Willy CHW Lester, Jon CHC 3 Guaranteed R... JE 407 104.8 22.6 96.5 68 0 0 0 406 14
07/27/17 Video View Rizzo, Anthony CHC Pelfrey, Mike CHW 4 Guaranteed R... PL 422 105.1 29.9 77.0 109 0 0 2 420 30
07/27/17 Video View Schwarber, Kyle CHC Pelfrey, Mike CHW 4 Guaranteed R... PL 399 102.3 31.0 108.8 103 0 0 2 396 30
07/27/17 Video View Abreu, Jose CHW Lester, Jon CHC 4 Guaranteed R... ND 450 112.6 28.2 110.8 103 3 0 2 445 30
07/27/17 Video View Schwarber, Kyle CHC Bummer, Aaron CHW 8 Guaranteed R... ND 412 110.5 35.4 64.8 144 0 0 4 408 30
07/27/17 Video View Abreu, Jose CHW Uehara, Koji CHC 9 Guaranteed R... PL 440 108.7 22.5 89.5 79 0 0 0 440 29
07/26/17 Video View Moncada, Yoan CHW Arrieta, Jake CHC 7 Guaranteed R... JE 421 106.1 22.2 93.7 75 2 0 0 419 20
07/26/17 Video View Hanson, Alen CHW Montgomery, Mike CHC 8 Guaranteed R... JE 349 95.2 36.8 66.2 114 0 2 2 344 10
07/26/17 Video View Russell, Addison CHC Minaya, Juan CHW 9 Guaranteed R... PL 379 98.6 28.7 72.6 84 0 1 1 377 24
07/19/17 Video View Taylor, Chris LAD Rodon, Carlos CHW 1 Guaranteed R... PL 384 98.8 28.6 75.2 85 0 1 1 382 21
07/19/17 Video View Cabrera, Melky CHW Maeda, Kenta LAD 1 Guaranteed R... PL 370 99.8 28.4 62.9 75 0 1 1 368 26
07/19/17 Video View Hernandez, Enrique LAD Rodon, Carlos CHW 2 Guaranteed R... PL 371 102.7 37.8 115.2 138 -2 4 4 365 30
07/19/17 Video View Hernandez, Enrique LAD Rodon, Carlos CHW 4 Guaranteed R... ND 419 110.9 23.6 109.2 70 0 1 1 417 30
07/19/17 Video View Seager, Corey LAD Rodon, Carlos CHW 4 Guaranteed R... JE 391 100.6 26.1 102.3 77 0 1 1 389 16
07/16/17 Video View Garcia, Avisail CHW Moore, Andrew SEA 2 Guaranteed R... PL 429 104.6 26.9 85.8 96 1 0 1 428 29
07/16/17 Video View Narvaez, Omar CHW Moore, Andrew SEA 2 Guaranteed R... PL 381 103.2 25.8 66.0 69 1 0 1 380 27
07/16/17 Video View Garcia, Avisail CHW Moore, Andrew SEA 3 Guaranteed R... ND 409 105.5 35.4 106.6 140 6 1 3 398 30
07/16/17 Video View Seager, Kyle SEA Holland, Derek CHW 4 Guaranteed R... ND 392 102.6 30.9 64.9 97 0 1 2 390 30
07/16/17 Video View Valencia, Danny SEA Holland, Derek CHW 5 Guaranteed R... ND 400 103.0 31.4 111.0 104 2 1 2 396 30
07/16/17 Video View Cruz, Nelson SEA Beck, Chris CHW 10 Guaranteed R... PL 378 109.0 23.2 125.0 56 0 0 1 377 30
07/15/17 Video View Cabrera, Melky CHW Hernandez, Felix SEA 1 Guaranteed R... ND 420 109.6 26.0 66.7 79 1 1 1 417 30
07/15/17 Video View Seager, Kyle SEA Pelfrey, Mike CHW 2 Guaranteed R... ND 408 107.8 33.9 62.4 124 -3 3 3 405 30
07/15/17 Video View Cruz, Nelson SEA Swarzak, Anthony CHW 6 Guaranteed R... PL 426 107.8 21.7 93.5 70 0 0 0 425 25
07/14/17 Video View Cano, Robinson SEA Shields, James CHW 3 Guaranteed R... JE 396 104.1 22.4 81.1 65 0 0 0 396 11
07/02/17 Video View Cabrera, Melky CHW Ross, Tyson TEX 1 Guaranteed R... JE 403 99.6 28.1 95.1 91 0 2 1 399 6
07/02/17 Video View Napoli, Mike TEX Quintana, Jose CHW 4 Guaranteed R... PL 412 103.3 24.3 94.6 81 -1 1 1 411 20
07/02/17 Video View Sanchez, Yolmer CHW Leclerc, Jose TEX 8 Guaranteed R... ND 417 104.2 28.8 71.7 93 9 3 2 406 30
07/01/17 Video View Abreu, Jose CHW Hamels, Cole TEX 1 Guaranteed R... PL 412 102.5 29.1 99.0 104 -4 2 2 412 30
07/01/17 Video View Andrus, Elvis TEX Holland, Derek CHW 5 Guaranteed R... JE/L 366 97.0 38.2 105.7 131 9 4 3 351 2
07/01/17 Video View Napoli, Mike TEX Beck, Chris CHW 6 Guaranteed R... PL 384 104.9 37.5 104.7 156 -9 6 4 383 30
07/01/17 Video View Odor, Rougned TEX Holmberg, David CHW 8 Guaranteed R... PL 365 103.2 39.3 64.0 147 0 6 4 354 28
06/30/17 Video View Abreu, Jose CHW Bibens-Dirkx, Austin TEX 1 Guaranteed R... ND 436 110.7 26.2 108.5 88 0 1 1 434 30
06/30/17 Video View Frazier, Todd CHW Bibens-Dirkx, Austin TEX 1 Guaranteed R... ND 398 106.6 27.8 121.0 80 0 1 1 396 30
06/30/17 Video View Gallo, Joey TEX Pelfrey, Mike CHW 3 Guaranteed R... ND 450 108.6 28.6 98.2 112 2 2 2 446 30
06/30/17 Video View Odor, Rougned TEX Pelfrey, Mike CHW 4 Guaranteed R... PL 394 101.5 31.5 70.3 103 0 1 2 391 30
06/30/17 Video View Frazier, Todd CHW Bibens-Dirkx, Austin TEX 4 Guaranteed R... JE 392 106.3 21.5 102.1 58 0 0 0 391 11
06/28/17 Video View Judge, Aaron NYY Petricka, Jake CHW 6 Guaranteed R... ND 418 118.6 19.5 108.4 53 -1 0 1 417 30
06/28/17 Video View Gregorius, Didi NYY Ynoa, Michael CHW 9 Guaranteed R... JE 362 108.1 21.9 55.2 51 -1 0 0 362 24
06/28/17 Video View Engel, Adam CHW Webb, Tyler NYY 9 Guaranteed R... PL 357 98.1 36.5 114.3 120 -4 1 3 357 23
06/26/17 Video View Frazier, Todd CHW Montgomery, Jordan NYY 2 Guaranteed R... ND 419 106.4 26.5 107.5 81 5 -1 1 413 30
06/26/17 Video View Austin, Tyler NYY Holmberg, David CHW 6 Guaranteed R... PL 378 107.5 23.0 119.3 55 3 -1 1 375 22
06/26/17 Video View Anderson, Tim CHW Shreve, Chasen NYY 9 Guaranteed R... PL 394 101.7 26.7 75.2 80 1 0 1 393 27
06/25/17 Video View Engel, Adam CHW Gray, Sonny OAK 3 Guaranteed R... PL 378 100.4 34.5 118.3 108 4 0 2 372 30
06/25/17 Video View Rosales, Adam OAK Robertson, David CHW 9 Guaranteed R... PL 404 100.4 34.6 101.1 123 12 1 2 388 17
06/25/17 Video View Joyce, Matt OAK Beck, Chris CHW 9 Guaranteed R... ND 412 108.9 27.0 62.8 81 0 1 1 410 30
06/25/17 Video View Cabrera, Melky CHW Casilla, Santiago OAK 9 Guaranteed R... ND 397 104.2 27.3 65.4 76 4 1 1 391 30
06/24/17 Video View Olson, Matt OAK Shields, James CHW 1 Guaranteed R... ND 418 107.7 29.7 65.7 99 0 0 2 415 30
06/24/17 Video View Brugman, Jaycob OAK Shields, James CHW 2 Guaranteed R... PL 366 96.5 32.9 68.6 99 0 1 2 363 21
06/24/17 Video View Barreto, Franklin OAK Shields, James CHW 3 Guaranteed R... PL 405 101.0 31.5 98.7 113 0 1 2 402 25
06/24/17 Video View Olson, Matt OAK Petricka, Jake CHW 7 Guaranteed R... JE 416 103.9 23.9 92.1 77 0 1 1 415 18
06/23/17 Video View Davis, Khris OAK Pelfrey, Mike CHW 1 Guaranteed R... PL 439 108.8 22.4 87.8 77 0 1 1 438 29
06/23/17 Video View Joyce, Matt OAK Pelfrey, Mike CHW 5 Guaranteed R... PL 434 105.7 26.5 83.7 92 2 1 1 430 28
06/15/17 Video View Davidson, Matt CHW Tillman, Chris BAL 4 Guaranteed R... ND 403 105.9 32.7 119.1 110 -2 4 2 399 30
06/15/17 Video View Castillo, Welington BAL Robertson, David CHW 9 Guaranteed R... PL 428 103.2 28.3 92.7 99 2 2 1 422 27
06/14/17 Video View Davidson, Matt CHW Bundy, Dylan BAL 2 Guaranteed R... PL 412 102.6 32.9 83.7 128 0 0 2 409 24
06/14/17 Video View Castillo, Welington BAL Gonzalez, Miguel CHW 5 Guaranteed R... PL 440 107.1 24.7 91.4 89 0 0 1 439 30
06/14/17 Video View Hanson, Alen CHW Givens, Mychal BAL 9 Guaranteed R... JE 408 100.9 27.8 85.3 94 0 0 1 407 15
06/13/17 Video View Davidson, Matt CHW Asher, Alec BAL 6 Guaranteed R... ND 425 110.0 30.8 116.7 109 0 0 2 423 30
06/12/17 Video View Smith, Kevan CHW Miley, Wade BAL 2 Guaranteed R... PL 426 105.1 24.5 84.2 81 3 1 1 421 24
06/12/17 Video View Davidson, Matt CHW Castro, Miguel BAL 7 Guaranteed R... PL 401 100.9 28.5 102.3 91 0 3 1 398 28
06/12/17 Video View Mancini, Trey BAL Infante, Gregory CHW 8 Guaranteed R... JE 351 100.2 25.1 59.5 58 0 1 1 349 8
05/30/17 Video View Marrero, Deven BOS Quintana, Jose CHW 2 Guaranteed R... PL 392 105.9 25.5 115.2 70 0 0 1 390 30
05/30/17 Video View Betts, Mookie BOS Quintana, Jose CHW 2 Guaranteed R... ND 406 107.0 24.9 109.3 73 0 0 1 405 30
05/30/17 Video View Marrero, Deven BOS Quintana, Jose CHW 3 Guaranteed R... PL 381 98.0 30.2 104.9 93 0 0 2 380 20
05/30/17 Video View Frazier, Todd CHW Sale, Chris BOS 4 Guaranteed R... PL 373 97.6 32.7 109.0 103 0 -1 2 371 21
05/30/17 Video View Bradley Jr., Jackie BOS Jennings, Dan CHW 5 Guaranteed R... PL 381 99.3 28.1 73.2 82 0 0 1 380 24
05/30/17 Video View Bogaerts, Xander BOS Jennings, Dan CHW 8 Guaranteed R... JE 413 101.4 29.8 89.7 108 0 0 2 412 23
05/30/17 Video View Anderson, Tim CHW Boyer, Blaine BOS 8 Guaranteed R... PL 412 107.0 23.7 102.9 72 0 0 0 412 30
05/30/17 Video View Moreland, Mitch BOS Minaya, Juan CHW 9 Guaranteed R... ND 421 110.7 26.7 63.1 83 1 -1 1 420 30
05/29/17 Video View Cabrera, Melky CHW Price, David BOS 3 Guaranteed R... PL 404 100.8 29.9 103.0 97 4 1 1 398 28
05/29/17 Video View Betts, Mookie BOS Infante, Gregory CHW 5 Guaranteed R... JE/L 344 104.4 22.2 128.9 46 2 1 1 341 4
05/28/17 Video View Cabrera, Melky CHW Zimmermann, Jordan DET 3 Guaranteed R... PL 386 99.8 32.3 73.8 109 0 -2 2 386 30
05/28/17 Video View Davidson, Matt CHW Zimmermann, Jordan DET 4 Guaranteed R... JE/L 409 100.7 26.8 90.7 87 2 -1 1 407 4
05/28/17 Video View Frazier, Todd CHW Zimmermann, Jordan DET 5 Guaranteed R... ND 401 107.4 28.5 121.3 86 -2 -1 2 402 30
05/27/17 Video View Hicks, John DET Holland, Derek CHW 4 Guaranteed R... PL 392 103.5 28.6 114.5 86 -1 0 1 392 30
05/27/17 Video View Martinez, Victor DET Minaya, Juan CHW 9 Guaranteed R... JE 354 98.8 28.3 57.0 70 0 -1 0 354 27
05/26/17 Video View Avila, Alex DET Pelfrey, Mike CHW 5 Guaranteed R... PL 421 104.3 24.9 87.0 85 0 -1 0 421 24
05/26/17 Video View Davidson, Matt CHW Hardy, Blaine DET 6 Guaranteed R... PL 410 106.7 24.9 106.0 77 0 -1 1 410 30
05/26/17 Video View Cabrera, Melky CHW Bell, Chad DET 8 Guaranteed R... PL 389 107.5 22.2 108.2 59 0 0 1 388 25
05/14/17 Video View Renfroe, Hunter SD Quintana, Jose CHW 7 Guaranteed R... JE/L 375 96.4 29.9 77.6 91 1 -2 1 375 11
05/13/17 Video View Margot, Manuel SD Covey, Dylan CHW 1 Guaranteed R... JE/L 352 93.3 33.3 57.2 80 13 1 1 336 7
05/13/17 Video View Garcia, Avisail CHW Cahill, Trevor SD 2 Guaranteed R... PL 425 103.3 28.1 92.5 101 0 1 2 423 27
05/13/17 Video View Cordoba, Allen SD Covey, Dylan CHW 3 Guaranteed R... PL 405 102.2 26.6 79.4 84 0 1 1 404 28
05/13/17 Video View Myers, Wil SD Kahnle, Tommy CHW 8 Guaranteed R... ND 450 112.9 23.7 101.8 83 1 0 1 449 30
05/12/17 Video View Szczur, Matt SD Gonzalez, Miguel CHW 1 Guaranteed R... ND 412 106.4 30.6 111.6 107 0 -3 2 413 30
05/12/17 Video View Garcia, Leury CHW Chacin, Jhoulys SD 3 Guaranteed R... PL 386 103.9 27.5 62.5 78 0 -2 1 386 30
05/12/17 Video View Garcia, Leury CHW Chacin, Jhoulys SD 7 Guaranteed R... PL 408 102.2 31.0 81.1 114 0 -3 2 409 28
05/12/17 Video View Myers, Wil SD Beck, Chris CHW 9 Guaranteed R... PL 403 101.1 29.5 100.0 102 0 -2 2 403 27
05/11/17 Video View Escobar, Eduardo MIN Holland, Derek CHW 1 Guaranteed R... ND 419 106.9 26.8 105.8 91 -2 -1 1 421 30
05/11/17 Video View Dozier, Brian MIN Holland, Derek CHW 2 Guaranteed R... ND 412 106.8 27.4 109.7 90 -2 -2 1 415 30
05/11/17 Video View Sano, Miguel MIN Holland, Derek CHW 2 Guaranteed R... PL 380 99.5 29.4 73.1 92 -4 -1 1 384 28
05/11/17 Video View Cabrera, Melky CHW Hughes, Phil MIN 5 Guaranteed R... JE 363 102.2 24.3 65.1 60 0 -1 0 363 13
05/11/17 Video View Davidson, Matt CHW Duffey, Tyler MIN 6 Guaranteed R... PL 387 101.3 32.7 109.6 111 0 -3 2 388 30
05/09/17 Video View Vargas, Kennys MIN Pelfrey, Mike CHW 4 Guaranteed R... PL 410 119.5 18.5 73.1 49 0 -1 1 411 29
04/26/17 Video View Garcia, Avisail CHW Karns, Nathan KC 6 Guaranteed R... PL 439 105.1 28.9 93.6 106 5 1 1 432 30
04/26/17 Video View Garcia, Leury CHW Moylan, Peter KC 7 Guaranteed R... JE/L 361 106.8 20.5 68.6 50 -1 0 0 361 3
04/25/17 Video View Moss, Brandon KC Beck, Chris CHW 9 Guaranteed R... JE 399 101.7 25.0 98.3 78 -1 0 1 398 16
04/25/17 Video View Moustakas, Mike KC Beck, Chris CHW 9 Guaranteed R... ND 408 108.7 29.4 60.4 97 -7 0 2 414 30
04/24/17 Video View Davidson, Matt CHW Vargas, Jason KC 2 Guaranteed R... PL 407 104.9 24.4 78.2 76 0 -1 0 407 28
04/23/17 Video View Lindor, Francisco CLE Holland, Derek CHW 4 Guaranteed R... PL 391 100.1 30.1 105.3 97 1 -2 1 390 30
04/22/17 Video View Encarnacion, Edwin CLE Pelfrey, Mike CHW 1 Guaranteed R... PL 438 109.9 21.0 89.4 72 1 0 0 437 29
04/22/17 Video View Brantley, Michael CLE Ynoa, Michael CHW 7 Guaranteed R... PL 391 107.4 22.0 73.7 60 0 -1 0 391 26
04/22/17 Video View Ramirez, Jose CLE Ynoa, Michael CHW 9 Guaranteed R... PL 407 105.2 25.5 75.1 79 0 -2 1 407 29
04/21/17 Video View Guyer, Brandon CLE Quintana, Jose CHW 4 Guaranteed R... PL 397 102.1 25.6 103.0 75 4 -2 0 394 18
04/09/17 Video View Polanco, Jorge MIN Quintana, Jose CHW 7 Guaranteed R... PL 403 101.1 26.7 96.7 87 -1 0 0 403 19
04/09/17 Video View Sano, Miguel MIN Jones, Nate CHW 8 Guaranteed R... PL 422 103.9 26.3 90.5 102 -5 2 1 424 27
04/08/17 Video View Soto, Geovany CHW Haley, Justin MIN 6 Guaranteed R... PL 397 110.2 22.6 112.0 64 -3 -1 0 399 30
04/08/17 Video View Garcia, Avisail CHW Haley, Justin MIN 6 Guaranteed R... PL 429 107.2 22.7 87.7 85 0 0 1 429 28
04/08/17 Video View Castro, Jason MIN Gonzalez, Miguel CHW 6 Guaranteed R... PL 416 102.4 25.0 91.0 88 4 0 1 411 20
04/06/17 Video View Davidson, Matt CHW Sanchez, Anibal DET 4 Guaranteed R... ND 442 107.5 27.8 104.9 102 16 -4 1 428 30
04/06/17 Video View Soto, Geovany CHW Wilson, Alex DET 7 Guaranteed R... PL 425 101.8 30.8 89.4 107 14 -4 2 413 23
04/06/17 Video View Soto, Geovany CHW Boyd, Matt DET 3 Guaranteed R... ND 384 103.0 30.4 126.4 83 8 -4 1 378 30
04/06/17 Video View Collins, Tyler DET Shields, James CHW 2 Guaranteed R... PL 404 105.5 23.4 78.5 69 0 -1 0 404 27
04/04/17 Video View Kinsler, Ian DET Quintana, Jose CHW 4 Guaranteed R... PL 372 98.2 34.2 106.5 116 0 -4 2 374 22
04/04/17 Video View Jones, JaCoby DET Quintana, Jose CHW 2 Guaranteed R... PL 366 98.8 32.3 118.4 95 0 -3 2 367 30
04/04/17 Video View Castellanos, Nick DET Quintana, Jose CHW 2 Guaranteed R... PL 405 106.8 24.1 73.4 71 1 -1 0 405 29


About HitTracker | Contact Us
© 2006-2017 HitTrackerOnline